createdAt,value
2019-01-04T00:00:14.177Z,75.01
2019-01-04T00:00:54.929Z,75.1
2019-01-04T00:01:35.615Z,75.1
2019-01-04T00:02:16.372Z,75.1
2019-01-04T00:02:57.115Z,75.01
2019-01-04T00:03:37.947Z,74.91
2019-01-04T00:04:18.783Z,75.1
2019-01-04T00:04:59.521Z,75.01
2019-01-04T00:05:40.257Z,75.1
2019-01-04T00:06:21.041Z,74.91
2019-01-04T00:07:01.885Z,75.01
2019-01-04T00:07:42.592Z,75.1
2019-01-04T00:08:23.331Z,75.2
2019-01-04T00:09:04.049Z,75.2
2019-01-04T00:09:44.826Z,75.01
2019-01-04T00:10:25.709Z,75.01
2019-01-04T00:11:06.524Z,74.91
2019-01-04T00:11:47.369Z,74.87
2019-01-04T00:12:27.983Z,75.1
2019-01-04T00:13:08.734Z,75.01
2019-01-04T00:13:49.455Z,75.01
2019-01-04T00:14:30.214Z,75.1
2019-01-04T00:15:10.937Z,75.1
2019-01-04T00:15:51.689Z,74.91
2019-01-04T00:16:32.492Z,75.1
2019-01-04T00:17:13.285Z,75.1
2019-01-04T00:17:54.100Z,75.1
2019-01-04T00:18:34.823Z,75.01
2019-01-04T00:19:15.562Z,75.01
2019-01-04T00:19:56.302Z,75.01
2019-01-04T00:20:37.158Z,75.2
2019-01-04T00:21:17.961Z,75.1
2019-01-04T00:21:58.725Z,75.1
2019-01-04T00:22:39.478Z,75.16
2019-01-04T00:23:20.250Z,75.07
2019-01-04T00:24:01.010Z,75.1
2019-01-04T00:24:41.788Z,75.2
2019-01-04T00:25:22.502Z,75.07
2019-01-04T00:26:03.236Z,75.2
2019-01-04T00:26:44.040Z,75.1
2019-01-04T00:27:24.821Z,74.77
2019-01-04T00:28:05.562Z,74.62
2019-01-04T00:28:46.332Z,74.82
2019-01-04T00:29:27.121Z,74.82
2019-01-04T00:30:07.946Z,74.82
2019-01-04T00:30:48.716Z,74.82
2019-01-04T00:31:29.459Z,74.62
2019-01-04T00:32:10.461Z,74.77
2019-01-04T00:32:51.087Z,75.01
2019-01-04T00:33:31.833Z,75.01
2019-01-04T00:34:12.530Z,74.82
2019-01-04T00:34:53.267Z,75.1
2019-01-04T00:35:34.092Z,75.01
2019-01-04T00:36:14.916Z,74.82
2019-01-04T00:36:55.738Z,74.58
2019-01-04T00:37:36.456Z,75.1
2019-01-04T00:38:17.171Z,74.91
2019-01-04T00:38:57.914Z,74.82
2019-01-04T00:39:38.678Z,75.07
2019-01-04T00:40:19.501Z,74.82
2019-01-04T00:41:00.264Z,75.01
2019-01-04T00:41:40.936Z,74.52
2019-01-04T00:42:21.774Z,75.1
2019-01-04T00:43:02.608Z,75.1
2019-01-04T00:43:43.376Z,75.16
2019-01-04T00:44:24.098Z,75.1
2019-01-04T00:45:04.832Z,75.01
2019-01-04T00:45:45.571Z,75.2
2019-01-04T00:46:26.384Z,75.1
2019-01-04T00:47:07.169Z,75.01
2019-01-04T00:47:47.949Z,75.2
2019-01-04T00:48:28.714Z,74.82
2019-01-04T00:49:09.436Z,75.2
2019-01-04T00:49:50.259Z,75.1
2019-01-04T00:50:31.057Z,75.01
2019-01-04T00:51:11.758Z,75.01
2019-01-04T00:51:52.479Z,75.01
2019-01-04T00:52:33.164Z,75.2
2019-01-04T00:53:14.010Z,75.26
2019-01-04T00:53:54.805Z,74.43
2019-01-04T00:54:35.540Z,74.33
2019-01-04T00:55:16.288Z,74.52
2019-01-04T00:55:56.996Z,74.52
2019-01-04T00:56:37.746Z,74.49
2019-01-04T00:57:18.541Z,74.43
2019-01-04T00:57:59.284Z,74.52
2019-01-04T00:58:39.970Z,74.43
2019-01-04T00:59:20.773Z,74.33
2019-01-04T01:00:01.518Z,74.33
2019-01-04T01:00:42.364Z,74.3
2019-01-04T01:01:23.092Z,74.62
2019-01-04T01:02:03.800Z,74.43
2019-01-04T01:02:44.590Z,74.62
2019-01-04T01:03:25.369Z,74.43
2019-01-04T01:04:06.098Z,74.05
2019-01-04T01:04:46.800Z,74.4
2019-01-04T01:05:27.509Z,74.05
2019-01-04T01:06:08.290Z,74.52
2019-01-04T01:06:49.018Z,74.33
2019-01-04T01:07:29.770Z,74.33
2019-01-04T01:08:10.588Z,74.3
2019-01-04T01:08:51.356Z,74.2
2019-01-04T01:09:32.153Z,74.33
2019-01-04T01:10:12.886Z,74.4
2019-01-04T01:10:53.689Z,74.43
2019-01-04T01:11:34.484Z,73.82
2019-01-04T01:12:15.213Z,74.43
2019-01-04T01:12:56.040Z,73.95
2019-01-04T01:13:36.876Z,74.05
2019-01-04T01:14:17.625Z,74.24
2019-01-04T01:14:58.369Z,73.91
2019-01-04T01:15:39.147Z,74.2
2019-01-04T01:16:20.024Z,74.33
2019-01-04T01:17:00.738Z,74.05
2019-01-04T01:17:41.482Z,74.43
2019-01-04T01:18:22.210Z,74.11
2019-01-04T01:19:03.039Z,74.24
2019-01-04T01:19:43.826Z,74.33
2019-01-04T01:20:24.590Z,74.4
2019-01-04T01:21:05.290Z,74.24
2019-01-04T01:21:46.105Z,74.11
2019-01-04T01:22:26.904Z,74.15
2019-01-04T01:23:07.638Z,74.4
2019-01-04T01:23:48.372Z,74.3
2019-01-04T01:24:29.247Z,74.33
2019-01-04T01:25:09.993Z,74.24
2019-01-04T01:25:50.681Z,74.52
2019-01-04T01:26:31.405Z,74.2
2019-01-04T01:27:12.159Z,74.2
2019-01-04T01:27:52.959Z,74.33
2019-01-04T01:28:33.770Z,74.3
2019-01-04T01:29:14.590Z,74.01
2019-01-04T01:29:55.377Z,74.4
2019-01-04T01:30:36.083Z,74.33
2019-01-04T01:31:16.795Z,74.43
2019-01-04T01:31:57.529Z,74.24
2019-01-04T01:32:38.419Z,74.24
2019-01-04T01:33:19.137Z,74.49
2019-01-04T01:33:59.918Z,74.24
2019-01-04T01:34:40.707Z,74.2
2019-01-04T01:35:21.476Z,74.24
2019-01-04T01:36:02.259Z,74.2
2019-01-04T01:36:42.953Z,74.2
2019-01-04T01:37:23.675Z,74.33
2019-01-04T01:38:04.515Z,74.2
2019-01-04T01:38:45.235Z,74.11
2019-01-04T01:39:25.918Z,74.24
2019-01-04T01:40:06.612Z,74.49
2019-01-04T01:40:47.387Z,74.49
2019-01-04T01:41:28.187Z,74.4
2019-01-04T01:42:08.926Z,74.43
2019-01-04T01:42:49.735Z,74.43
2019-01-04T01:43:30.517Z,74.43
2019-01-04T01:44:11.327Z,74.4
2019-01-04T01:44:52.081Z,74.33
2019-01-04T01:45:32.782Z,74.4
2019-01-04T01:46:13.608Z,74.33
2019-01-04T01:46:54.302Z,74.4
2019-01-04T01:47:35.120Z,74.4
2019-01-04T01:48:15.953Z,74.4
2019-01-04T01:48:56.813Z,74.3
2019-01-04T01:49:37.485Z,74.01
2019-01-04T01:50:18.241Z,74.01
2019-01-04T01:50:59.021Z,73.82
2019-01-04T01:51:39.745Z,74.24
2019-01-04T01:52:20.504Z,74.2
2019-01-04T01:53:01.242Z,74.15
2019-01-04T01:53:42.011Z,74.3
2019-01-04T01:54:22.798Z,74.01
2019-01-04T01:55:03.581Z,74.11
2019-01-04T01:55:44.353Z,74.01
2019-01-04T01:56:25.036Z,74.11
2019-01-04T01:57:05.786Z,74.2
2019-01-04T01:57:46.694Z,74.2
2019-01-04T01:58:27.392Z,74.01
2019-01-04T01:59:08.126Z,74.01
2019-01-04T01:59:48.853Z,74.01
2019-01-04T02:00:29.679Z,74.3
2019-01-04T02:01:10.487Z,74.3
2019-01-04T02:01:51.514Z,74.4
2019-01-04T02:02:32.079Z,73.91
2019-01-04T02:03:12.791Z,74.01
2019-01-04T02:03:53.570Z,74.01
2019-01-04T02:04:34.381Z,73.91
2019-01-04T02:05:15.189Z,74.01
2019-01-04T02:05:56.079Z,74.11
2019-01-04T02:06:36.825Z,73.91
2019-01-04T02:07:17.577Z,73.82
2019-01-04T02:07:58.315Z,74.2
2019-01-04T02:08:39.055Z,73.82
2019-01-04T02:09:19.798Z,74.01
2019-01-04T02:10:00.482Z,74.4
2019-01-04T02:10:41.234Z,74.11
2019-01-04T02:11:22.031Z,74.2
2019-01-04T02:12:02.777Z,74.01
2019-01-04T02:12:43.525Z,74.01
2019-01-04T02:13:24.341Z,74.01
2019-01-04T02:14:05.098Z,74.11
2019-01-04T02:14:45.913Z,74.11
2019-01-04T02:15:26.636Z,74.11
2019-01-04T02:16:07.372Z,73.91
2019-01-04T02:16:48.264Z,74.11
2019-01-04T02:17:29.050Z,74.01
2019-01-04T02:18:09.753Z,74.01
2019-01-04T02:18:50.441Z,74.01
2019-01-04T02:19:31.209Z,74.01
2019-01-04T02:20:11.987Z,74.01
2019-01-04T02:20:52.769Z,74.11
2019-01-04T02:21:33.533Z,74.49
2019-01-04T02:22:14.229Z,73.72
2019-01-04T02:22:54.957Z,74.2
2019-01-04T02:23:35.701Z,74.01
2019-01-04T02:24:16.546Z,74.01
2019-01-04T02:24:57.285Z,74.2
2019-01-04T02:25:38.018Z,74.01
2019-01-04T02:26:18.835Z,74.01
2019-01-04T02:26:59.582Z,74.01
2019-01-04T02:27:40.386Z,74.01
2019-01-04T02:28:21.124Z,74.4
2019-01-04T02:29:01.859Z,73.82
2019-01-04T02:29:42.605Z,74.3
2019-01-04T02:30:23.336Z,73.82
2019-01-04T02:31:04.148Z,74.2
2019-01-04T02:31:44.929Z,74.4
2019-01-04T02:32:25.714Z,74.4
2019-01-04T02:33:06.419Z,74.4
2019-01-04T02:33:47.202Z,74.4
2019-01-04T02:34:27.963Z,74.49
2019-01-04T02:35:08.674Z,74.2
2019-01-04T02:35:49.400Z,74.2
2019-01-04T02:36:30.119Z,74.01
2019-01-04T02:37:10.942Z,73.82
2019-01-04T02:37:51.750Z,74.2
2019-01-04T02:38:32.578Z,73.63
2019-01-04T02:39:13.337Z,73.82
2019-01-04T02:39:54.086Z,73.72
2019-01-04T02:40:34.819Z,73.82
2019-01-04T02:41:15.559Z,73.72
2019-01-04T02:41:56.312Z,73.72
2019-01-04T02:42:37.143Z,73.63
2019-01-04T02:43:17.841Z,73.91
2019-01-04T02:43:58.683Z,73.82
2019-01-04T02:44:39.506Z,73.82
2019-01-04T02:45:20.331Z,73.91
2019-01-04T02:46:01.043Z,73.91
2019-01-04T02:46:41.849Z,73.82
2019-01-04T02:47:22.622Z,73.72
2019-01-04T02:48:03.345Z,73.72
2019-01-04T02:48:44.108Z,73.72
2019-01-04T02:49:24.849Z,73.72
2019-01-04T02:50:05.637Z,73.72
2019-01-04T02:50:46.383Z,73.72
2019-01-04T02:51:27.142Z,73.72
2019-01-04T02:52:08.008Z,73.72
2019-01-04T02:52:48.651Z,73.72
2019-01-04T02:53:29.427Z,73.54
2019-01-04T02:54:10.184Z,73.72
2019-01-04T02:54:50.897Z,73.63
2019-01-04T02:55:31.641Z,73.54
2019-01-04T02:56:12.390Z,73.72
2019-01-04T02:56:53.224Z,73.72
2019-01-04T02:57:34.027Z,73.63
2019-01-04T02:58:14.813Z,73.72
2019-01-04T02:58:55.579Z,74.01
2019-01-04T02:59:36.301Z,73.91
2019-01-04T03:00:17.177Z,73.91
2019-01-04T03:00:57.953Z,73.24
2019-01-04T03:01:38.698Z,73.63
2019-01-04T03:02:19.473Z,73.24
2019-01-04T03:03:00.215Z,73.34
2019-01-04T03:03:41.069Z,73.34
2019-01-04T03:04:21.864Z,73.05
2019-01-04T03:05:02.635Z,73.24
2019-01-04T03:05:43.315Z,73.15
2019-01-04T03:06:24.035Z,73.15
2019-01-04T03:07:04.792Z,73.24
2019-01-04T03:07:45.557Z,73.24
2019-01-04T03:08:26.331Z,73.24
2019-01-04T03:09:07.073Z,73.15
2019-01-04T03:09:47.834Z,73.54
2019-01-04T03:10:28.616Z,73.15
2019-01-04T03:11:09.425Z,73.54
2019-01-04T03:11:50.168Z,73.34
2019-01-04T03:12:30.865Z,73.24
2019-01-04T03:13:11.594Z,73.15
2019-01-04T03:13:52.357Z,73.34
2019-01-04T03:14:33.110Z,73.15
2019-01-04T03:15:13.882Z,72.38
2019-01-04T03:15:54.686Z,72.67
2019-01-04T03:16:35.441Z,72.48
2019-01-04T03:17:16.211Z,73.24
2019-01-04T03:17:56.980Z,72.67
2019-01-04T03:18:37.728Z,72.77
2019-01-04T03:19:18.460Z,73.15
2019-01-04T03:19:59.186Z,72.86
2019-01-04T03:20:39.971Z,72.77
2019-01-04T03:21:20.750Z,72.67
2019-01-04T03:22:01.457Z,73.15
2019-01-04T03:22:42.244Z,72.58
2019-01-04T03:23:23.007Z,72.96
2019-01-04T03:24:03.787Z,72.86
2019-01-04T03:24:44.542Z,72.86
2019-01-04T03:25:25.277Z,73.05
2019-01-04T03:26:06.084Z,72.77
2019-01-04T03:26:46.842Z,72.86
2019-01-04T03:27:27.563Z,72.67
2019-01-04T03:28:08.268Z,72.96
2019-01-04T03:28:48.933Z,72.58
2019-01-04T03:29:29.725Z,72.96
2019-01-04T03:30:10.497Z,72.77
2019-01-04T03:30:51.303Z,72.77
2019-01-04T03:31:32.039Z,72.86
2019-01-04T03:32:12.773Z,72.67
2019-01-04T03:32:53.506Z,72.48
2019-01-04T03:33:34.295Z,72.29
2019-01-04T03:34:15.083Z,72.58
2019-01-04T03:34:55.798Z,72.67
2019-01-04T03:35:36.539Z,72.58
2019-01-04T03:36:17.309Z,72.77
2019-01-04T03:36:58.102Z,72.48
2019-01-04T03:37:38.893Z,72.67
2019-01-04T03:38:19.570Z,72.67
2019-01-04T03:39:00.325Z,72.67
2019-01-04T03:39:41.153Z,72.67
2019-01-04T03:40:21.872Z,72.67
2019-01-04T03:41:02.565Z,72.58
2019-01-04T03:41:43.298Z,72.29
2019-01-04T03:42:24.099Z,72.67
2019-01-04T03:43:04.912Z,72.09
2019-01-04T03:43:45.611Z,72.29
2019-01-04T03:44:26.441Z,72.38
2019-01-04T03:45:07.273Z,72.86
2019-01-04T03:45:48.085Z,72.48
2019-01-04T03:46:28.817Z,72.48
2019-01-04T03:47:09.512Z,72.58
2019-01-04T03:47:50.231Z,72.77
2019-01-04T03:48:30.945Z,72.67
2019-01-04T03:49:11.722Z,72.58
2019-01-04T03:49:52.481Z,72.58
2019-01-04T03:50:33.326Z,72.58
2019-01-04T03:51:14.033Z,72.58
2019-01-04T03:51:54.747Z,72.38
2019-01-04T03:52:35.530Z,72.29
2019-01-04T03:53:16.235Z,72.67
2019-01-04T03:53:56.932Z,72.29
2019-01-04T03:54:37.637Z,72.29
2019-01-04T03:55:18.374Z,72.48
2019-01-04T03:55:59.186Z,72.19
2019-01-04T03:56:39.901Z,72.19
2019-01-04T03:57:20.614Z,72.58
2019-01-04T03:58:01.392Z,72.29
2019-01-04T03:58:42.200Z,72.29
2019-01-04T03:59:23.012Z,72.86
2019-01-04T04:00:03.738Z,72.29
2019-01-04T04:00:44.508Z,72.29
2019-01-04T04:01:25.296Z,72.38
2019-01-04T04:02:05.992Z,72.09
2019-01-04T04:02:46.694Z,72.29
2019-01-04T04:03:27.432Z,72.19
2019-01-04T04:04:08.188Z,71.81
2019-01-04T04:04:48.949Z,72.58
2019-01-04T04:05:29.748Z,72
2019-01-04T04:06:10.463Z,72
2019-01-04T04:06:51.177Z,72.19
2019-01-04T04:07:31.949Z,72.09
2019-01-04T04:08:12.687Z,71.81
2019-01-04T04:08:53.521Z,72
2019-01-04T04:09:34.350Z,72
2019-01-04T04:10:15.041Z,72.58
2019-01-04T04:10:55.837Z,71.91
2019-01-04T04:11:36.595Z,72.09
2019-01-04T04:12:17.404Z,72.38
2019-01-04T04:12:58.122Z,72.09
2019-01-04T04:13:38.825Z,72.48
2019-01-04T04:14:19.609Z,72.48
2019-01-04T04:15:00.400Z,72.09
2019-01-04T04:15:41.188Z,72.19
2019-01-04T04:16:21.951Z,72.38
2019-01-04T04:17:02.731Z,72.09
2019-01-04T04:17:43.474Z,72.19
2019-01-04T04:18:24.275Z,71.62
2019-01-04T04:19:05.011Z,71.52
2019-01-04T04:19:45.690Z,71.71
2019-01-04T04:20:26.373Z,71.62
2019-01-04T04:21:07.052Z,71.52
2019-01-04T04:21:47.883Z,72.48
2019-01-04T04:22:28.653Z,72.38
2019-01-04T04:23:09.462Z,72.48
2019-01-04T04:23:50.171Z,72.29
2019-01-04T04:24:30.886Z,72
2019-01-04T04:25:11.598Z,72.29
2019-01-04T04:25:52.388Z,72
2019-01-04T04:26:33.158Z,72.19
2019-01-04T04:27:13.883Z,71.81
2019-01-04T04:27:54.604Z,72.09
2019-01-04T04:28:35.416Z,72
2019-01-04T04:29:16.216Z,72.19
2019-01-04T04:29:56.955Z,72
2019-01-04T04:30:37.655Z,72.29
2019-01-04T04:31:18.426Z,72.19
2019-01-04T04:31:59.217Z,72.48
2019-01-04T04:32:39.919Z,72.38
2019-01-04T04:33:20.602Z,72.38
2019-01-04T04:34:01.396Z,72.09
2019-01-04T04:34:42.197Z,72.48
2019-01-04T04:35:22.919Z,72.19
2019-01-04T04:36:03.651Z,72.38
2019-01-04T04:36:44.416Z,72
2019-01-04T04:37:25.198Z,72.29
2019-01-04T04:38:05.998Z,72.19
2019-01-04T04:38:46.708Z,72
2019-01-04T04:39:27.396Z,72.38
2019-01-04T04:40:08.138Z,72.19
2019-01-04T04:40:48.848Z,72.29
2019-01-04T04:41:29.620Z,72.29
2019-01-04T04:42:10.422Z,72.19
2019-01-04T04:42:51.202Z,72.19
2019-01-04T04:43:31.905Z,72
2019-01-04T04:44:12.614Z,71.91
2019-01-04T04:44:53.457Z,72
2019-01-04T04:45:34.214Z,72.19
2019-01-04T04:46:14.915Z,72
2019-01-04T04:46:55.632Z,72
2019-01-04T04:47:36.423Z,72
2019-01-04T04:48:17.222Z,72.09
2019-01-04T04:48:58.036Z,72.29
2019-01-04T04:49:38.801Z,72
2019-01-04T04:50:19.570Z,71.81
2019-01-04T04:51:00.291Z,72.19
2019-01-04T04:51:41.010Z,71.81
2019-01-04T04:52:21.804Z,72.09
2019-01-04T04:53:02.530Z,72.29
2019-01-04T04:53:43.291Z,72.38
2019-01-04T04:54:24.064Z,72
2019-01-04T04:55:04.829Z,72.29
2019-01-04T04:55:45.626Z,72.29
2019-01-04T04:56:26.399Z,72.29
2019-01-04T04:57:07.119Z,72.29
2019-01-04T04:57:47.853Z,72.29
2019-01-04T04:58:28.582Z,72.29
2019-01-04T04:59:09.402Z,72.29
2019-01-04T04:59:50.190Z,72.29
2019-01-04T05:00:30.936Z,72.29
2019-01-04T05:01:11.624Z,71.81
2019-01-04T05:01:52.372Z,71.71
2019-01-04T05:02:33.139Z,72.29
2019-01-04T05:03:13.872Z,72.38
2019-01-04T05:03:54.574Z,72.48
2019-01-04T05:04:35.322Z,71.71
2019-01-04T05:05:16.131Z,71.81
2019-01-04T05:05:56.883Z,71.91
2019-01-04T05:06:37.588Z,72.48
2019-01-04T05:07:18.372Z,72.29
2019-01-04T05:07:59.194Z,72.38
2019-01-04T05:08:40.042Z,72.38
2019-01-04T05:09:20.769Z,72.09
2019-01-04T05:10:01.555Z,71.71
2019-01-04T05:10:42.360Z,72.38
2019-01-04T05:11:23.133Z,72.29
2019-01-04T05:12:03.841Z,72.38
2019-01-04T05:12:44.587Z,71.71
2019-01-04T05:13:25.301Z,71.71
2019-01-04T05:14:06.126Z,72.38
2019-01-04T05:14:46.861Z,71.91
2019-01-04T05:15:27.691Z,72
2019-01-04T05:16:08.386Z,72.19
2019-01-04T05:16:49.080Z,72.29
2019-01-04T05:17:29.801Z,72
2019-01-04T05:18:10.587Z,72.09
2019-01-04T05:18:51.360Z,72.48
2019-01-04T05:19:32.047Z,72.48
2019-01-04T05:20:12.795Z,72.29
2019-01-04T05:20:53.600Z,72.38
2019-01-04T05:21:34.407Z,72.29
2019-01-04T05:22:15.174Z,72.48
2019-01-04T05:22:55.865Z,72
2019-01-04T05:23:36.556Z,71.62
2019-01-04T05:24:17.313Z,71.71
2019-01-04T05:24:58.140Z,71.71
2019-01-04T05:25:38.904Z,71.71
2019-01-04T05:26:19.695Z,71.91
2019-01-04T05:27:00.379Z,72.29
2019-01-04T05:27:41.164Z,72.29
2019-01-04T05:28:22.030Z,72
2019-01-04T05:29:02.719Z,72.19
2019-01-04T05:29:43.425Z,72.29
2019-01-04T05:30:24.119Z,72.09
2019-01-04T05:31:04.888Z,72.29
2019-01-04T05:31:45.696Z,72.29
2019-01-04T05:32:26.524Z,72.29
2019-01-04T05:33:07.299Z,71.71
2019-01-04T05:33:48.050Z,72
2019-01-04T05:34:28.790Z,72
2019-01-04T05:35:09.498Z,71.91
2019-01-04T05:35:50.309Z,72.38
2019-01-04T05:36:31.045Z,72.38
2019-01-04T05:37:11.738Z,72.29
2019-01-04T05:37:52.565Z,71.71
2019-01-04T05:38:33.365Z,71.81
2019-01-04T05:39:14.200Z,71.81
2019-01-04T05:39:54.924Z,71.71
2019-01-04T05:40:35.638Z,71.71
2019-01-04T05:41:16.442Z,71.71
2019-01-04T05:41:57.177Z,71.52
2019-01-04T05:42:37.872Z,71.33
2019-01-04T05:43:18.601Z,72
2019-01-04T05:43:59.333Z,71.23
2019-01-04T05:44:40.115Z,71.42
2019-01-04T05:45:20.843Z,71.52
2019-01-04T05:46:01.585Z,71.52
2019-01-04T05:46:42.368Z,71.33
2019-01-04T05:47:23.129Z,71.52
2019-01-04T05:48:03.937Z,71.91
2019-01-04T05:48:44.641Z,71.71
2019-01-04T05:49:25.343Z,72
2019-01-04T05:50:06.099Z,71.62
2019-01-04T05:50:46.835Z,72
2019-01-04T05:51:28.571Z,71.71
2019-01-04T05:52:08.419Z,71.81
2019-01-04T05:52:49.184Z,71.33
2019-01-04T05:53:29.935Z,71.71
2019-01-04T05:54:10.716Z,71.71
2019-01-04T05:54:51.459Z,71.62
2019-01-04T05:55:32.171Z,71.52
2019-01-04T05:56:12.850Z,71.71
2019-01-04T05:56:53.590Z,71.62
2019-01-04T05:57:34.366Z,71.71
2019-01-04T05:58:15.093Z,71.52
2019-01-04T05:58:55.808Z,71.52
2019-01-04T05:59:36.609Z,71.71
2019-01-04T06:00:17.413Z,71.71
2019-01-04T06:00:58.218Z,71.81
2019-01-04T06:01:38.943Z,71.81
2019-01-04T06:02:19.660Z,71.62
2019-01-04T06:03:00.441Z,71.62
2019-01-04T06:03:41.226Z,71.81
2019-01-04T06:04:21.991Z,71.62
2019-01-04T06:05:02.661Z,71.52
2019-01-04T06:05:43.403Z,71.71
2019-01-04T06:06:24.240Z,71.71
2019-01-04T06:07:05.016Z,71.68
2019-01-04T06:07:45.815Z,71.52
2019-01-04T06:08:26.541Z,71.71
2019-01-04T06:09:07.255Z,71.71
2019-01-04T06:09:48.031Z,71.71
2019-01-04T06:10:28.810Z,71.42
2019-01-04T06:11:09.596Z,71.33
2019-01-04T06:11:50.332Z,71.62
2019-01-04T06:12:31.104Z,71.71
2019-01-04T06:13:11.888Z,71.52
2019-01-04T06:13:52.682Z,71.52
2019-01-04T06:14:33.438Z,71.52
2019-01-04T06:15:14.144Z,71.52
2019-01-04T06:15:54.920Z,71.42
2019-01-04T06:16:35.695Z,71.52
2019-01-04T06:17:16.407Z,71.52
2019-01-04T06:17:57.692Z,71.71
2019-01-04T06:18:38.426Z,71.62
2019-01-04T06:19:19.166Z,71.81
2019-01-04T06:19:59.897Z,71.52
2019-01-04T06:20:40.637Z,71.71
2019-01-04T06:21:21.445Z,71.52
2019-01-04T06:22:02.301Z,71.33
2019-01-04T06:22:43.124Z,71.71
2019-01-04T06:23:23.833Z,71.91
2019-01-04T06:24:04.562Z,71.52
2019-01-04T06:24:45.250Z,71.42
2019-01-04T06:25:26.031Z,71.71
2019-01-04T06:26:06.920Z,71.71
2019-01-04T06:26:47.644Z,71.42
2019-01-04T06:27:28.415Z,71.42
2019-01-04T06:28:09.120Z,71.91
2019-01-04T06:28:49.896Z,72
2019-01-04T06:29:30.709Z,71.33
2019-01-04T06:30:11.404Z,71.71
2019-01-04T06:30:52.102Z,71.71
2019-01-04T06:31:32.847Z,72
2019-01-04T06:32:13.603Z,71.42
2019-01-04T06:32:54.389Z,71.91
2019-01-04T06:33:35.186Z,72
2019-01-04T06:34:15.947Z,72.09
2019-01-04T06:34:56.640Z,71.52
2019-01-04T06:35:37.352Z,72.09
2019-01-04T06:36:18.103Z,71.2
2019-01-04T06:36:58.949Z,71.23
2019-01-04T06:37:39.662Z,71.48
2019-01-04T06:38:20.443Z,71.62
2019-01-04T06:39:01.230Z,71.77
2019-01-04T06:39:41.995Z,72.29
2019-01-04T06:40:22.824Z,71.42
2019-01-04T06:41:03.513Z,71.68
2019-01-04T06:41:44.243Z,71.81
2019-01-04T06:42:24.978Z,71.81
2019-01-04T06:43:05.735Z,71.23
2019-01-04T06:43:46.504Z,71.42
2019-01-04T06:44:27.294Z,71.58
2019-01-04T06:45:08.012Z,71.2
2019-01-04T06:45:48.729Z,72.09
2019-01-04T06:46:29.485Z,71.81
2019-01-04T06:47:10.231Z,72.16
2019-01-04T06:47:50.924Z,72.09
2019-01-04T06:48:31.656Z,71.42
2019-01-04T06:49:12.394Z,72.09
2019-01-04T06:49:53.190Z,71.23
2019-01-04T06:50:33.924Z,71.39
2019-01-04T06:51:14.675Z,71.42
2019-01-04T06:51:55.451Z,71.62
2019-01-04T06:52:36.287Z,71.39
2019-01-04T06:53:17.104Z,71.39
2019-01-04T06:53:57.809Z,71.39
2019-01-04T06:54:38.529Z,71.97
2019-01-04T06:55:19.340Z,71.81
2019-01-04T06:56:00.026Z,72
2019-01-04T06:56:40.735Z,71.52
2019-01-04T06:57:21.443Z,71.52
2019-01-04T06:58:02.214Z,71.52
2019-01-04T06:58:43.033Z,71.58
2019-01-04T06:59:23.785Z,71.58
2019-01-04T07:00:04.581Z,71.62
2019-01-04T07:00:45.299Z,71.42
2019-01-04T07:01:25.993Z,71.52
2019-01-04T07:02:06.732Z,71.68
2019-01-04T07:02:47.499Z,71.01
2019-01-04T07:03:28.282Z,71.23
2019-01-04T07:04:08.987Z,71.23
2019-01-04T07:04:49.725Z,71.62
2019-01-04T07:05:31.698Z,71.58
2019-01-04T07:06:11.329Z,70.91
2019-01-04T07:06:52.046Z,71.62
2019-01-04T07:07:32.800Z,71.48
2019-01-04T07:08:13.519Z,71.04
2019-01-04T07:08:54.281Z,71.14
2019-01-04T07:09:35.015Z,71.2
2019-01-04T07:10:15.809Z,71.14
2019-01-04T07:10:56.541Z,71.58
2019-01-04T07:11:37.239Z,71.04
2019-01-04T07:12:18.028Z,71.2
2019-01-04T07:12:58.795Z,71.52
2019-01-04T07:13:39.527Z,71.48
2019-01-04T07:14:20.242Z,71.33
2019-01-04T07:15:00.952Z,71.48
2019-01-04T07:15:41.776Z,71.3
2019-01-04T07:16:22.516Z,71.52
2019-01-04T07:17:03.277Z,71.3
2019-01-04T07:17:44.014Z,71.23
2019-01-04T07:18:24.751Z,71.33
2019-01-04T07:19:05.461Z,71.39
2019-01-04T07:19:46.222Z,71.48
2019-01-04T07:20:26.989Z,71.11
2019-01-04T07:21:07.689Z,71.11
2019-01-04T07:21:48.383Z,71.14
2019-01-04T07:22:29.160Z,71.48
2019-01-04T07:23:10.007Z,71.3
2019-01-04T07:23:50.732Z,71.48
2019-01-04T07:24:31.426Z,71.2
2019-01-04T07:25:12.261Z,71.23
2019-01-04T07:25:53.060Z,71.01
2019-01-04T07:26:33.789Z,71.33
2019-01-04T07:27:14.493Z,71.3
2019-01-04T07:27:55.174Z,71.2
2019-01-04T07:28:35.988Z,71.62
2019-01-04T07:29:16.726Z,71.42
2019-01-04T07:29:57.430Z,71.2
2019-01-04T07:30:38.184Z,71.2
2019-01-04T07:31:18.987Z,71.23
2019-01-04T07:31:59.790Z,71.3
2019-01-04T07:32:40.509Z,71.58
2019-01-04T07:33:21.261Z,71.3
2019-01-04T07:34:01.941Z,71.2
2019-01-04T07:34:42.729Z,71.48
2019-01-04T07:35:23.540Z,71.48
2019-01-04T07:36:04.344Z,71.42
2019-01-04T07:36:45.135Z,71.58
2019-01-04T07:37:25.822Z,71.62
2019-01-04T07:38:06.552Z,71.23
2019-01-04T07:38:47.324Z,71.48
2019-01-04T07:39:28.077Z,71.2
2019-01-04T07:40:08.786Z,71.23
2019-01-04T07:40:49.482Z,71.23
2019-01-04T07:41:30.233Z,71.01
2019-01-04T07:42:11.027Z,71.11
2019-01-04T07:42:51.827Z,71.2
2019-01-04T07:43:32.571Z,71.33
2019-01-04T07:44:13.281Z,71.2
2019-01-04T07:44:53.956Z,71.2
2019-01-04T07:45:34.644Z,71.14
2019-01-04T07:46:15.455Z,71.2
2019-01-04T07:46:56.173Z,71.52
2019-01-04T07:47:36.902Z,71.2
2019-01-04T07:48:17.719Z,71.33
2019-01-04T07:48:58.471Z,71.33
2019-01-04T07:49:39.281Z,71.33
2019-01-04T07:50:19.990Z,71.11
2019-01-04T07:51:00.729Z,71.3
2019-01-04T07:51:41.441Z,71.39
2019-01-04T07:52:22.254Z,71.48
2019-01-04T07:53:03.014Z,71.33
2019-01-04T07:53:43.810Z,71.2
2019-01-04T07:54:24.515Z,71.2
2019-01-04T07:55:05.233Z,71.23
2019-01-04T07:55:46.067Z,71.33
2019-01-04T07:56:26.874Z,71.14
2019-01-04T07:57:07.582Z,71.04
2019-01-04T07:57:48.255Z,71.01
2019-01-04T07:58:29.004Z,71.23
2019-01-04T07:59:09.797Z,71.01
2019-01-04T07:59:50.550Z,71.42
2019-01-04T08:00:31.309Z,70.81
2019-01-04T08:01:12.075Z,71.14
2019-01-04T08:01:52.836Z,71.23
2019-01-04T08:02:33.645Z,71.04
2019-01-04T08:03:14.409Z,71.01
2019-01-04T08:03:55.121Z,71.04
2019-01-04T08:04:35.939Z,71.01
2019-01-04T08:05:16.670Z,71.23
2019-01-04T08:05:57.377Z,71.42
2019-01-04T08:06:38.097Z,70.95
2019-01-04T08:07:18.785Z,70.91
2019-01-04T08:08:00.452Z,71.04
2019-01-04T08:08:40.397Z,71.04
2019-01-04T08:09:21.194Z,71.04
2019-01-04T08:10:01.889Z,71.04
2019-01-04T08:10:42.622Z,71.39
2019-01-04T08:11:23.357Z,71.01
2019-01-04T08:12:04.210Z,71.2
2019-01-04T08:12:44.960Z,71.01
2019-01-04T08:13:25.618Z,71.23
2019-01-04T08:14:06.395Z,70.81
2019-01-04T08:14:47.204Z,70.91
2019-01-04T08:15:27.996Z,71.04
2019-01-04T08:16:08.708Z,70.91
2019-01-04T08:16:49.443Z,70.85
2019-01-04T08:17:30.237Z,70.85
2019-01-04T08:18:10.991Z,70.85
2019-01-04T08:18:51.704Z,70.95
2019-01-04T08:19:32.394Z,71.04
2019-01-04T08:20:13.127Z,70.95
2019-01-04T08:20:53.950Z,71.2
2019-01-04T08:21:34.701Z,71.04
2019-01-04T08:22:15.449Z,71.04
2019-01-04T08:22:56.260Z,71.04
2019-01-04T08:23:37.024Z,70.37
2019-01-04T08:24:17.794Z,70.37
2019-01-04T08:24:58.564Z,70.37
2019-01-04T08:25:39.277Z,70.91
2019-01-04T08:26:20.001Z,70.95
2019-01-04T08:27:00.797Z,71.04
2019-01-04T08:27:41.542Z,70.91
2019-01-04T08:28:22.314Z,70.37
2019-01-04T08:29:03.068Z,70.53
2019-01-04T08:29:43.806Z,70.47
2019-01-04T08:30:24.614Z,70.66
2019-01-04T08:31:05.361Z,70.37
2019-01-04T08:31:46.056Z,70.85
2019-01-04T08:32:26.786Z,70.56
2019-01-04T08:33:07.538Z,70.53
2019-01-04T08:33:48.304Z,70.18
2019-01-04T08:34:29.025Z,71.14
2019-01-04T08:35:09.710Z,71.14
2019-01-04T08:35:50.486Z,70.56
2019-01-04T08:36:31.239Z,71.04
2019-01-04T08:37:12.041Z,70.66
2019-01-04T08:37:52.810Z,70.37
2019-01-04T08:38:33.507Z,70.37
2019-01-04T08:39:14.273Z,70.37
2019-01-04T08:39:55.059Z,70.28
2019-01-04T08:40:35.760Z,70.18
2019-01-04T08:41:16.452Z,70.18
2019-01-04T08:41:57.142Z,70.18
2019-01-04T08:42:37.939Z,70.37
2019-01-04T08:43:18.752Z,70.18
2019-01-04T08:43:59.527Z,70.28
2019-01-04T08:44:40.253Z,70.18
2019-01-04T08:45:20.975Z,70.37
2019-01-04T08:46:01.661Z,70.37
2019-01-04T08:46:42.450Z,70.18
2019-01-04T08:47:23.255Z,70.18
2019-01-04T08:48:03.974Z,70.18
2019-01-04T08:48:44.745Z,70.28